Disclaimer

Please do not use the information listed here in-flight or in-navigation, as they are not provided to us by the airports but are provided by volunteers, so they might be outdated.

Search


Regions


Airport information page

Radio informations:
RDO - 131.5 MHz
Common traffic adv. frequency (CTAF) - 122.8 MHz

Airport informations:
Latitude: 25° 17' 07.10" N
Longitude: 049° 29' 06.68" E
Elevation: 588 feet - 179 meters
Operating hours: 24 hour operations
Operating agency: Civil government, landing fees and diplomatic clearance may be required
Timezone: UTC+3
Fuel: Unknown fuel type or whether there is any fuel.

Runway information:
16/34 - 10039 x 148 feet< - >3060 x 45 meters

Recent METARs:
OEAH 210900Z 33013KT CAVOK 23/08 Q1020 NOSIG
OEAH 211000Z 32010KT CAVOK 23/07 Q1018 NOSIG
OEAH 211000Z 32010KT CAVOK 23/07 Q1018 NOSIG

Airport on the map: